createdAt,value
2019-01-14T00:01:29.218Z,99013.23
2019-01-14T00:03:57.243Z,99014.38
2019-01-14T00:06:25.404Z,98999.00
2019-01-14T00:08:53.755Z,99005.70
2019-01-14T00:11:21.784Z,99010.63
2019-01-14T00:13:49.828Z,99010.63
2019-01-14T00:16:17.842Z,99000.16
2019-01-14T00:18:45.906Z,99007.20
2019-01-14T00:21:13.924Z,99014.55
2019-01-14T00:23:41.955Z,99006.70
2019-01-14T00:26:10.863Z,99009.63
2019-01-14T00:28:39.099Z,99017.66
2019-01-14T00:31:07.148Z,99015.23
2019-01-14T00:33:35.220Z,99028.50
2019-01-14T00:36:03.186Z,99032.27
2019-01-14T00:38:31.909Z,99041.42
2019-01-14T00:40:59.893Z,99056.48
2019-01-14T00:43:27.946Z,99076.27
2019-01-14T00:45:55.979Z,99074.35
2019-01-14T00:48:24.004Z,99077.63
2019-01-14T00:50:52.024Z,99080.92
2019-01-14T00:53:20.069Z,99085.84
2019-01-14T00:55:48.064Z,99091.42
2019-01-14T00:58:16.228Z,99089.49
2019-01-14T01:00:44.265Z,99096.02
2019-01-14T01:03:12.309Z,99097.83
2019-01-14T01:05:40.344Z,99110.09
2019-01-14T01:08:08.370Z,99111.73
2019-01-14T01:10:36.472Z,99106.98
2019-01-14T01:13:04.820Z,99115.81
2019-01-14T01:15:32.844Z,99108.48
2019-01-14T01:18:02.839Z,99105.55
2019-01-14T01:20:31.281Z,99116.50
2019-01-14T01:22:59.312Z,99114.08
2019-01-14T01:25:27.369Z,99112.77
2019-01-14T01:27:55.390Z,99129.26
2019-01-14T01:30:23.424Z,99144.12
2019-01-14T01:32:51.465Z,99149.66
2019-01-14T01:35:19.514Z,99149.66
2019-01-14T01:37:47.550Z,99151.28
2019-01-14T01:40:20.068Z,99150.97
2019-01-14T01:42:48.113Z,99152.77
2019-01-14T01:45:16.546Z,99129.60
2019-01-14T01:47:44.616Z,99145.28
2019-01-14T01:50:16.528Z,99141.23
2019-01-14T01:52:44.579Z,99150.88
2019-01-14T01:55:12.638Z,99163.63
2019-01-14T01:57:40.696Z,99173.58
2019-01-14T02:00:13.655Z,99178.99
2019-01-14T02:02:41.702Z,99178.50
2019-01-14T02:05:10.577Z,99179.48
2019-01-14T02:07:38.594Z,99182.26
2019-01-14T02:10:10.158Z,99194.51
2019-01-14T02:12:38.198Z,99197.12
2019-01-14T02:15:15.896Z,99194.70
2019-01-14T02:17:44.023Z,99198.48
2019-01-14T02:20:15.155Z,99203.37
2019-01-14T02:22:43.643Z,99209.59
2019-01-14T02:25:13.534Z,99216.80
2019-01-14T02:27:42.026Z,99230.35
2019-01-14T02:30:18.087Z,99230.22
2019-01-14T02:32:46.108Z,99236.28
2019-01-14T02:35:14.281Z,99243.98
2019-01-14T02:37:42.354Z,99245.94
2019-01-14T02:40:14.055Z,99247.74
2019-01-14T02:42:42.092Z,99251.97
2019-01-14T02:45:10.517Z,99250.67
2019-01-14T02:47:38.550Z,99255.58
2019-01-14T02:50:07.728Z,99261.80
2019-01-14T02:52:39.760Z,99263.47
2019-01-14T02:55:07.254Z,99269.83
2019-01-14T02:57:36.478Z,99268.08
2019-01-14T03:00:19.456Z,99273.48
2019-01-14T03:02:47.838Z,99276.55
2019-01-14T03:05:15.895Z,99284.39
2019-01-14T03:07:44.956Z,99286.85
2019-01-14T03:10:13.215Z,99294.50
2019-01-14T03:12:41.259Z,99302.02
2019-01-14T03:15:09.816Z,99307.42
2019-01-14T03:17:37.860Z,99309.69
2019-01-14T03:20:08.786Z,99312.80
2019-01-14T03:22:36.911Z,99328.46
2019-01-14T03:25:05.906Z,99328.15
2019-01-14T03:27:34.393Z,99333.23
2019-01-14T03:30:04.364Z,99336.02
2019-01-14T03:32:32.512Z,99341.89
2019-01-14T03:35:00.630Z,99340.27
2019-01-14T03:37:28.770Z,99348.77
2019-01-14T03:39:56.815Z,99346.34
2019-01-14T03:42:24.864Z,99350.09
2019-01-14T03:44:52.937Z,99356.80
2019-01-14T03:47:21.015Z,99359.09
2019-01-14T03:49:50.029Z,99363.99
2019-01-14T03:52:18.057Z,99363.83
2019-01-14T03:54:46.422Z,99367.42
2019-01-14T03:57:14.487Z,99363.51
2019-01-14T03:59:42.575Z,99361.57
2019-01-14T04:02:10.630Z,99358.64
2019-01-14T04:04:38.687Z,99372.68
2019-01-14T04:07:13.552Z,99374.94
2019-01-14T04:09:36.769Z,99376.11
2019-01-14T04:12:04.846Z,99379.21
2019-01-14T04:14:32.928Z,99383.80
2019-01-14T04:17:01.188Z,99384.44
2019-01-14T04:19:29.256Z,99389.02
2019-01-14T04:21:57.308Z,99395.41
2019-01-14T04:24:25.949Z,99395.55
2019-01-14T04:26:54.022Z,99394.42
2019-01-14T04:29:22.074Z,99399.50
2019-01-14T04:31:51.276Z,99402.92
2019-01-14T04:34:19.325Z,99405.38
2019-01-14T04:36:47.402Z,99415.47
2019-01-14T04:39:15.671Z,99416.45
2019-01-14T04:41:44.309Z,99417.94
2019-01-14T04:44:12.501Z,99415.50
2019-01-14T04:46:40.582Z,99418.11
2019-01-14T04:49:08.673Z,99420.89
2019-01-14T04:51:37.074Z,99427.73
2019-01-14T04:54:05.245Z,99428.08
2019-01-14T04:56:33.304Z,99438.20
2019-01-14T04:59:01.361Z,99428.89
2019-01-14T05:01:29.607Z,99437.03
2019-01-14T05:03:57.641Z,99435.09
2019-01-14T05:06:26.837Z,99442.92
2019-01-14T05:08:55.158Z,99441.61
2019-01-14T05:11:23.230Z,99442.59
2019-01-14T05:13:52.566Z,99446.83
2019-01-14T05:16:20.618Z,99453.98
2019-01-14T05:18:50.707Z,99448.95
2019-01-14T05:21:18.782Z,99443.23
2019-01-14T05:23:46.835Z,99441.94
2019-01-14T05:26:15.017Z,99445.53
2019-01-14T05:28:43.058Z,99447.33
2019-01-14T05:31:11.567Z,99445.20
2019-01-14T05:33:39.676Z,99456.95
2019-01-14T05:36:08.903Z,99454.34
2019-01-14T05:38:37.030Z,99460.37
2019-01-14T05:41:05.519Z,99456.13
2019-01-14T05:43:33.574Z,99462.66
2019-01-14T05:46:01.753Z,99462.33
2019-01-14T05:48:30.155Z,99457.93
2019-01-14T05:50:58.268Z,99465.44
2019-01-14T05:53:26.402Z,99460.22
2019-01-14T05:55:54.491Z,99463.14
2019-01-14T05:58:22.558Z,99464.94
2019-01-14T06:00:50.646Z,99470.66
2019-01-14T06:03:18.741Z,99479.78
2019-01-14T06:05:46.889Z,99481.72
2019-01-14T06:08:15.338Z,99493.14
2019-01-14T06:10:43.447Z,99488.91
2019-01-14T06:13:11.508Z,99487.59
2019-01-14T06:15:39.595Z,99482.55
2019-01-14T06:18:07.638Z,99474.90
2019-01-14T06:20:35.902Z,99485.16
2019-01-14T06:23:04.246Z,99499.17
2019-01-14T06:25:32.417Z,99513.20
2019-01-14T06:28:00.609Z,99508.30
2019-01-14T06:30:29.757Z,99511.07
2019-01-14T06:32:58.286Z,99514.34
2019-01-14T06:35:26.296Z,99519.38
2019-01-14T06:37:54.448Z,99519.71
2019-01-14T06:40:22.736Z,99525.41
2019-01-14T06:42:51.088Z,99530.63
2019-01-14T06:45:19.144Z,99536.34
2019-01-14T06:47:47.431Z,99544.48
2019-01-14T06:50:17.496Z,99552.47
2019-01-14T06:52:45.581Z,99553.45
2019-01-14T06:55:14.170Z,99560.11
2019-01-14T06:57:42.331Z,99563.20
2019-01-14T07:00:23.804Z,99568.59
2019-01-14T07:02:51.970Z,99570.38
2019-01-14T07:05:20.253Z,99573.16
2019-01-14T07:07:48.357Z,99572.52
2019-01-14T07:10:21.937Z,99573.95
2019-01-14T07:12:49.974Z,99573.95
2019-01-14T07:15:19.091Z,99589.27
2019-01-14T07:17:48.190Z,99591.23
2019-01-14T07:20:17.792Z,99599.71
2019-01-14T07:22:45.815Z,99606.36
2019-01-14T07:25:13.845Z,99620.86
2019-01-14T07:27:41.918Z,99615.33
2019-01-14T07:30:13.641Z,99615.00
2019-01-14T07:32:41.729Z,99610.28
2019-01-14T07:35:10.025Z,99620.22
2019-01-14T07:37:38.269Z,99625.43
2019-01-14T07:40:08.652Z,99632.44
2019-01-14T07:42:37.103Z,99630.16
2019-01-14T07:45:05.702Z,99637.97
2019-01-14T07:47:33.747Z,99651.66
2019-01-14T07:50:02.388Z,99650.84
2019-01-14T07:52:30.697Z,99653.45
2019-01-14T07:54:59.066Z,99669.91
2019-01-14T07:57:27.196Z,99677.37
2019-01-14T07:59:55.245Z,99678.34
2019-01-14T08:02:23.333Z,99676.55
2019-01-14T08:04:51.415Z,99683.88
2019-01-14T08:07:19.488Z,99689.59
2019-01-14T08:09:47.672Z,99687.34
2019-01-14T08:12:15.730Z,99693.36
2019-01-14T08:14:43.782Z,99696.13
2019-01-14T08:17:11.850Z,99695.80
2019-01-14T08:19:39.923Z,99700.04
2019-01-14T08:22:08.018Z,99697.44
2019-01-14T08:24:36.046Z,99705.74
2019-01-14T08:27:04.142Z,99709.16
2019-01-14T08:29:32.562Z,99717.15
2019-01-14T08:32:00.644Z,99717.31
2019-01-14T08:34:28.680Z,99726.89
2019-01-14T08:37:00.683Z,99725.27
2019-01-14T08:39:26.742Z,99731.29
2019-01-14T08:42:01.795Z,99738.98
2019-01-14T08:44:41.304Z,99735.20
2019-01-14T08:47:09.350Z,99737.81
2019-01-14T08:49:37.736Z,99736.38
2019-01-14T08:52:06.131Z,99738.00
2019-01-14T08:54:34.181Z,99738.48
2019-01-14T08:57:02.389Z,99749.11
2019-01-14T08:59:31.371Z,99746.66
2019-01-14T09:01:59.448Z,99761.66
2019-01-14T09:04:32.314Z,99761.36
2019-01-14T09:06:57.598Z,99765.11
2019-01-14T09:09:25.617Z,99767.88
2019-01-14T09:11:54.960Z,99768.07
2019-01-14T09:14:22.979Z,99769.54
2019-01-14T09:16:50.963Z,99773.61
2019-01-14T09:19:19.094Z,99772.83
2019-01-14T09:21:47.577Z,99767.80
2019-01-14T09:24:15.622Z,99767.83
2019-01-14T09:26:45.029Z,99776.48
2019-01-14T09:29:13.156Z,99779.47
2019-01-14T09:31:41.709Z,99778.67
2019-01-14T09:34:09.835Z,99782.44
2019-01-14T09:36:37.880Z,99777.73
2019-01-14T09:39:09.249Z,99776.95
2019-01-14T09:41:37.255Z,99787.39
2019-01-14T09:44:05.995Z,99785.13
2019-01-14T09:46:33.998Z,99783.81
2019-01-14T09:49:02.042Z,99785.62
2019-01-14T09:51:30.044Z,99786.70
2019-01-14T09:53:58.036Z,99786.36
2019-01-14T09:56:26.050Z,99784.67
2019-01-14T09:58:55.529Z,99776.96
2019-01-14T10:01:23.547Z,99781.66
2019-01-14T10:03:51.584Z,99777.38
2019-01-14T10:06:19.487Z,99777.69
2019-01-14T10:08:47.496Z,99775.20
2019-01-14T10:11:15.485Z,99780.30
2019-01-14T10:13:43.508Z,99780.44
2019-01-14T10:16:11.470Z,99782.11
2019-01-14T10:18:39.504Z,99778.67
2019-01-14T10:21:07.500Z,99780.30
2019-01-14T10:23:35.873Z,99784.55
2019-01-14T10:26:04.078Z,99791.09
2019-01-14T10:28:32.103Z,99789.64
2019-01-14T10:31:00.450Z,99788.16
2019-01-14T10:33:28.527Z,99792.58
2019-01-14T10:35:56.722Z,99793.89
2019-01-14T10:38:24.736Z,99791.45
2019-01-14T10:40:52.705Z,99795.55
2019-01-14T10:43:20.683Z,99791.63
2019-01-14T10:45:48.696Z,99792.48
2019-01-14T10:48:16.703Z,99793.80
2019-01-14T10:50:44.678Z,99795.77
2019-01-14T10:53:12.782Z,99798.56
2019-01-14T10:55:40.741Z,99803.63
2019-01-14T10:58:08.822Z,99796.77
2019-01-14T11:00:36.803Z,99802.66
2019-01-14T11:03:04.795Z,99810.86
2019-01-14T11:05:32.796Z,99817.08
2019-01-14T11:08:00.795Z,99805.83
2019-01-14T11:10:28.803Z,99810.42
2019-01-14T11:12:56.780Z,99808.30
2019-01-14T11:15:24.934Z,99797.34
2019-01-14T11:17:52.941Z,99800.94
2019-01-14T11:20:27.414Z,99799.14
2019-01-14T11:22:55.549Z,99808.93
2019-01-14T11:25:23.580Z,99803.06
2019-01-14T11:27:51.611Z,99800.28
2019-01-14T11:30:23.937Z,99805.16
2019-01-14T11:32:51.941Z,99803.54
2019-01-14T11:35:19.976Z,99807.61
2019-01-14T11:37:47.972Z,99804.99
2019-01-14T11:40:19.657Z,99812.17
2019-01-14T11:42:47.648Z,99807.26
2019-01-14T11:45:15.662Z,99812.02
2019-01-14T11:47:43.661Z,99816.76
2019-01-14T11:50:13.921Z,99821.02
2019-01-14T11:52:42.308Z,99825.61
2019-01-14T11:55:10.525Z,99823.34
2019-01-14T11:57:38.577Z,99830.38
2019-01-14T12:00:18.078Z,99819.09
2019-01-14T12:02:46.051Z,99820.89
2019-01-14T12:05:14.330Z,99825.62
2019-01-14T12:07:42.507Z,99827.91
2019-01-14T12:10:10.652Z,99832.33
2019-01-14T12:12:38.634Z,99833.14
2019-01-14T12:15:12.729Z,99831.86
2019-01-14T12:17:40.789Z,99829.73
2019-01-14T12:20:10.311Z,99826.94
2019-01-14T12:22:38.385Z,99831.20
2019-01-14T12:25:06.834Z,99832.33
2019-01-14T12:27:34.843Z,99843.62
2019-01-14T12:30:07.089Z,99853.53
2019-01-14T12:32:35.126Z,99857.97
2019-01-14T12:35:03.663Z,99858.94
2019-01-14T12:37:31.665Z,99855.49
2019-01-14T12:39:59.679Z,99852.08
2019-01-14T12:42:27.690Z,99849.80
2019-01-14T12:44:55.671Z,99851.08
2019-01-14T12:47:23.664Z,99853.34
2019-01-14T12:49:51.661Z,99859.55
2019-01-14T12:52:19.611Z,99857.92
2019-01-14T12:54:47.602Z,99859.55
2019-01-14T12:57:15.848Z,99866.88
2019-01-14T12:59:43.850Z,99866.06
2019-01-14T13:02:11.851Z,99865.42
2019-01-14T13:04:39.860Z,99865.58
2019-01-14T13:07:08.827Z,99873.59
2019-01-14T13:09:36.810Z,99867.88
2019-01-14T13:12:05.099Z,99869.99
2019-01-14T13:14:33.413Z,99868.36
2019-01-14T13:17:01.422Z,99873.59
2019-01-14T13:19:29.391Z,99874.73
2019-01-14T13:21:58.092Z,99873.09
2019-01-14T13:24:26.389Z,99875.56
2019-01-14T13:26:54.422Z,99873.11
2019-01-14T13:29:22.500Z,99871.97
2019-01-14T13:31:50.541Z,99869.48
2019-01-14T13:34:18.634Z,99863.64
2019-01-14T13:36:46.695Z,99869.98
2019-01-14T13:39:14.755Z,99870.34
2019-01-14T13:41:42.801Z,99866.42
2019-01-14T13:44:10.896Z,99880.30
2019-01-14T13:46:38.971Z,99889.27
2019-01-14T13:49:07.120Z,99889.27
2019-01-14T13:51:35.122Z,99892.05
2019-01-14T13:54:03.672Z,99885.03
2019-01-14T13:56:31.801Z,99896.13
2019-01-14T13:58:59.878Z,99902.33
2019-01-14T14:01:27.970Z,99905.43
2019-01-14T14:03:57.348Z,99914.08
2019-01-14T14:06:25.532Z,99908.37
2019-01-14T14:08:53.668Z,99924.53
2019-01-14T14:11:21.879Z,99927.47
2019-01-14T14:13:49.901Z,99931.22
2019-01-14T14:16:18.021Z,99925.02
2019-01-14T14:18:46.166Z,99925.50
2019-01-14T14:21:14.411Z,99927.48
2019-01-14T14:23:43.585Z,99927.33
2019-01-14T14:26:11.585Z,99932.55
2019-01-14T14:28:39.575Z,99934.50
2019-01-14T14:31:07.644Z,99939.56
2019-01-14T14:33:36.018Z,99939.42
2019-01-14T14:36:04.014Z,99942.85
2019-01-14T14:38:32.367Z,99943.18
2019-01-14T14:41:00.370Z,99944.47
2019-01-14T14:43:28.349Z,99950.70
2019-01-14T14:45:57.755Z,99949.23
2019-01-14T14:48:25.733Z,99956.41
2019-01-14T14:50:53.748Z,99954.61
2019-01-14T14:53:21.762Z,99959.70
2019-01-14T14:55:49.866Z,99968.98
2019-01-14T14:58:18.253Z,99965.72
2019-01-14T15:00:46.394Z,99970.79
2019-01-14T15:03:14.382Z,99980.75
2019-01-14T15:05:42.356Z,99988.59
2019-01-14T15:08:10.376Z,99997.09
2019-01-14T15:10:38.383Z,100003.59
2019-01-14T15:13:06.415Z,100007.19
2019-01-14T15:15:34.476Z,100012.41
2019-01-14T15:18:03.230Z,100017.61
2019-01-14T15:20:31.285Z,100028.88
2019-01-14T15:22:59.391Z,100036.52
2019-01-14T15:25:27.365Z,100037.33
2019-01-14T15:27:55.668Z,100049.25
2019-01-14T15:30:27.161Z,100056.72
2019-01-14T15:32:55.158Z,100065.21
2019-01-14T15:35:23.671Z,100072.88
2019-01-14T15:37:52.906Z,100075.98
2019-01-14T15:40:21.831Z,100075.49
2019-01-14T15:42:49.980Z,100091.30
2019-01-14T15:45:18.998Z,100091.13
2019-01-14T15:47:47.080Z,100102.06
2019-01-14T15:50:15.185Z,100104.02
2019-01-14T15:52:43.498Z,100109.86
2019-01-14T15:55:15.805Z,100108.22
2019-01-14T15:57:43.907Z,100116.17
2019-01-14T16:00:14.390Z,100110.12
2019-01-14T16:02:42.982Z,100114.82
2019-01-14T16:05:13.413Z,100118.56
2019-01-14T16:07:41.476Z,100122.31
2019-01-14T16:10:16.299Z,100135.66
2019-01-14T16:12:44.462Z,100136.63
2019-01-14T16:15:13.030Z,100140.38
2019-01-14T16:17:41.056Z,100137.89
2019-01-14T16:20:12.379Z,100136.08
2019-01-14T16:22:40.525Z,100136.03
2019-01-14T16:25:09.013Z,100140.42
2019-01-14T16:27:38.591Z,100146.73
2019-01-14T16:30:14.119Z,100151.45
2019-01-14T16:32:42.131Z,100156.14
2019-01-14T16:35:12.240Z,100157.11
2019-01-14T16:37:40.377Z,100161.30
2019-01-14T16:40:08.774Z,100168.47
2019-01-14T16:42:37.038Z,100172.54
2019-01-14T16:45:08.581Z,100175.30
2019-01-14T16:47:36.739Z,100171.06
2019-01-14T16:50:06.535Z,100172.97
2019-01-14T16:52:34.972Z,100177.86
2019-01-14T16:55:04.157Z,100183.39
2019-01-14T16:57:32.607Z,100190.52
2019-01-14T17:00:01.078Z,100199.80
2019-01-14T17:02:29.419Z,100209.90
2019-01-14T17:04:57.574Z,100204.14
2019-01-14T17:07:26.865Z,100210.00
2019-01-14T17:09:54.885Z,100208.52
2019-01-14T17:12:22.999Z,100209.60
2019-01-14T17:14:51.170Z,100203.72
2019-01-14T17:17:19.395Z,100207.30
2019-01-14T17:19:48.521Z,100215.88
2019-01-14T17:22:16.667Z,100214.55
2019-01-14T17:24:45.035Z,100213.89
2019-01-14T17:27:13.221Z,100216.92
2019-01-14T17:29:41.345Z,100219.46
2019-01-14T17:32:09.568Z,100220.39
2019-01-14T17:34:37.803Z,100232.73
2019-01-14T17:37:05.857Z,100230.20
2019-01-14T17:39:34.186Z,100232.78
2019-01-14T17:42:03.042Z,100238.23
2019-01-14T17:44:31.219Z,100242.22
2019-01-14T17:46:59.254Z,100243.90
2019-01-14T17:49:27.397Z,100250.71
2019-01-14T17:51:55.614Z,100260.80
2019-01-14T17:54:24.136Z,100264.34
2019-01-14T17:56:52.209Z,100256.67
2019-01-14T17:59:22.579Z,100264.48
2019-01-14T18:01:50.798Z,100281.08
2019-01-14T18:04:19.958Z,100283.84
2019-01-14T18:06:48.212Z,100284.80
2019-01-14T18:09:16.465Z,100288.00
2019-01-14T18:11:44.865Z,100293.99
2019-01-14T18:14:13.070Z,100291.45
2019-01-14T18:16:41.302Z,100290.44
2019-01-14T18:19:09.436Z,100299.08
2019-01-14T18:21:37.479Z,100313.80
2019-01-14T18:24:05.626Z,100313.38
2019-01-14T18:26:33.663Z,100321.34
2019-01-14T18:29:01.913Z,100326.83
2019-01-14T18:31:30.181Z,100323.72
2019-01-14T18:33:59.563Z,100324.87
2019-01-14T18:36:27.622Z,100321.16
2019-01-14T18:38:55.727Z,100319.58
2019-01-14T18:41:24.662Z,100321.50
2019-01-14T18:43:52.871Z,100310.05
2019-01-14T18:46:21.273Z,100322.56
2019-01-14T18:48:49.426Z,100326.13
2019-01-14T18:51:17.535Z,100333.45
2019-01-14T18:53:45.808Z,100337.02
2019-01-14T18:56:14.006Z,100334.08
2019-01-14T18:58:42.142Z,100348.86
2019-01-14T19:01:10.735Z,100344.63
2019-01-14T19:03:38.717Z,100349.01
2019-01-14T19:06:07.349Z,100353.05
2019-01-14T19:08:35.587Z,100359.66
2019-01-14T19:11:03.889Z,100361.92
2019-01-14T19:13:31.941Z,100365.95
2019-01-14T19:16:01.334Z,100370.14
2019-01-14T19:18:29.372Z,100372.98
2019-01-14T19:20:57.865Z,100373.73
2019-01-14T19:23:26.076Z,100380.34
2019-01-14T19:25:54.715Z,100380.63
2019-01-14T19:28:22.948Z,100386.55
2019-01-14T19:30:51.177Z,100394.48
2019-01-14T19:33:19.225Z,100390.86
2019-01-14T19:35:47.443Z,100395.48
2019-01-14T19:38:15.474Z,100400.13
2019-01-14T19:40:43.678Z,100406.05
2019-01-14T19:43:11.764Z,100413.51
2019-01-14T19:45:39.862Z,100415.18
2019-01-14T19:48:08.153Z,100416.14
2019-01-14T19:50:36.247Z,100415.93
2019-01-14T19:53:04.374Z,100428.69
2019-01-14T19:55:32.586Z,100422.45
2019-01-14T19:58:01.697Z,100429.57
2019-01-14T20:00:31.143Z,100440.89
2019-01-14T20:02:59.320Z,100440.68
2019-01-14T20:05:27.523Z,100450.73
2019-01-14T20:07:56.119Z,100451.21
2019-01-14T20:10:24.677Z,100454.52
2019-01-14T20:12:53.808Z,100456.08
2019-01-14T20:15:22.073Z,100458.92
2019-01-14T20:17:50.315Z,100467.80
2019-01-14T20:20:18.784Z,100474.08
2019-01-14T20:22:46.898Z,100469.59
2019-01-14T20:25:15.131Z,100477.17
2019-01-14T20:27:43.763Z,100477.75
2019-01-14T20:30:20.381Z,100476.37
2019-01-14T20:32:48.545Z,100482.52
2019-01-14T20:35:17.023Z,100482.75
2019-01-14T20:37:45.101Z,100486.91
2019-01-14T20:40:13.769Z,100484.06
2019-01-14T20:42:42.123Z,100492.11
2019-01-14T20:45:11.755Z,100490.94
2019-01-14T20:47:39.789Z,100489.87
2019-01-14T20:50:10.905Z,100493.07
2019-01-14T20:52:40.151Z,100501.47
2019-01-14T20:55:08.577Z,100500.27
2019-01-14T20:57:36.777Z,100499.92
2019-01-14T21:00:13.435Z,100497.45
2019-01-14T21:02:42.833Z,100510.09
2019-01-14T21:05:10.991Z,100521.42
2019-01-14T21:07:39.050Z,100522.38
2019-01-14T21:10:09.176Z,100518.95
2019-01-14T21:12:38.393Z,100521.78
2019-01-14T21:15:07.677Z,100527.45
2019-01-14T21:17:36.080Z,100534.55
2019-01-14T21:20:07.947Z,100536.31
2019-01-14T21:22:36.049Z,100534.29
2019-01-14T21:25:04.906Z,100536.19
2019-01-14T21:27:33.004Z,100529.83
2019-01-14T21:30:03.164Z,100532.17
2019-01-14T21:32:31.258Z,100538.66
2019-01-14T21:34:59.300Z,100544.92
2019-01-14T21:37:27.361Z,100542.11
2019-01-14T21:39:55.397Z,100548.47
2019-01-14T21:42:24.021Z,100547.87
2019-01-14T21:44:52.093Z,100548.44
2019-01-14T21:47:20.238Z,100544.44
2019-01-14T21:49:48.274Z,100546.42
2019-01-14T21:52:16.674Z,100547.83
2019-01-14T21:54:44.700Z,100550.80
2019-01-14T21:57:12.805Z,100551.48
2019-01-14T21:59:40.825Z,100556.80
2019-01-14T22:02:08.931Z,100557.27
2019-01-14T22:04:37.006Z,100562.11
2019-01-14T22:07:05.083Z,100558.78
2019-01-14T22:09:33.226Z,100565.64
2019-01-14T22:12:04.265Z,100568.23
2019-01-14T22:14:32.310Z,100570.45
2019-01-14T22:17:00.366Z,100580.59
2019-01-14T22:19:28.403Z,100585.08
2019-01-14T22:21:56.458Z,100597.79
2019-01-14T22:24:24.494Z,100604.05
2019-01-14T22:26:52.538Z,100611.23
2019-01-14T22:29:20.592Z,100611.45
2019-01-14T22:31:49.777Z,100608.71
2019-01-14T22:34:17.786Z,100619.80
2019-01-14T22:36:45.847Z,100614.58
2019-01-14T22:39:13.980Z,100616.20
2019-01-14T22:41:45.943Z,100617.74
2019-01-14T22:44:12.004Z,100619.01
2019-01-14T22:46:40.077Z,100618.51
2019-01-14T22:49:08.110Z,100626.98
2019-01-14T22:51:36.171Z,100618.36
2019-01-14T22:54:05.064Z,100625.39
2019-01-14T22:56:33.126Z,100634.53
2019-01-14T22:59:01.288Z,100638.27
2019-01-14T23:01:36.706Z,100639.05
2019-01-14T23:04:05.196Z,100640.22
2019-01-14T23:06:33.398Z,100644.89
2019-01-14T23:09:01.458Z,100641.23
2019-01-14T23:11:29.507Z,100639.67
2019-01-14T23:13:57.870Z,100638.02
2019-01-14T23:16:25.910Z,100635.78
2019-01-14T23:18:53.951Z,100633.31
2019-01-14T23:21:22.357Z,100632.60
2019-01-14T23:23:50.401Z,100635.39
2019-01-14T23:26:18.469Z,100641.51
2019-01-14T23:28:46.524Z,100641.73
2019-01-14T23:31:14.576Z,100639.61
2019-01-14T23:33:42.626Z,100644.88
2019-01-14T23:36:10.688Z,100653.94
2019-01-14T23:38:38.752Z,100663.39
2019-01-14T23:41:06.859Z,100663.16
2019-01-14T23:43:35.267Z,100673.30
2019-01-14T23:46:04.783Z,100669.57
2019-01-14T23:48:32.862Z,100674.09
2019-01-14T23:51:01.090Z,100681.52
2019-01-14T23:53:29.165Z,100683.44
2019-01-14T23:55:57.196Z,100688.39
2019-01-14T23:58:25.632Z,100688.74
